Time;durP1;ratioP1;P1;durP2;ratioP2;P2;SDS_P1;SDS_P2;PMS_P1;PMS_P2;Temp;Humidity;BMP_temperature;BMP_pressure;BME280_temperature;BME280_humidity;BME280_pressure;Samples;Min_cycle;Max_cycle;Signal;HPM_P1;HPM_P2
2021/01/09 00:00:32;;;;;;;17.02;11.40;;;4.40;99.90;;;;;;5013274;28;20398;-78
2021/01/09 00:02:57;;;;;;;16.45;10.43;;;4.30;99.90;;;;;;5031180;28;20030;-78
2021/01/09 00:05:23;;;;;;;16.38;10.93;;;4.30;99.90;;;;;;5031657;28;20029;-77
2021/01/09 00:07:48;;;;;;;17.80;10.75;;;4.30;99.90;;;;;;5013395;28;20041;-77
2021/01/09 00:10:14;;;;;;;16.05;10.15;;;4.30;99.90;;;;;;5013189;28;20466;-73
2021/01/09 00:12:40;;;;;;;17.52;11.07;;;4.30;99.90;;;;;;5031230;28;20044;-77
2021/01/09 00:15:07;;;;;;;17.83;9.88;;;4.30;99.90;;;;;;5034363;28;20021;-78
2021/01/09 00:17:36;;;;;;;17.42;10.00;;;4.30;99.90;;;;;;5034799;28;20237;-75
2021/01/09 00:20:13;;;;;;;16.08;9.35;;;4.30;99.90;;;;;;5021222;28;20025;-74
2021/01/09 00:22:39;;;;;;;16.58;10.05;;;4.30;99.90;;;;;;5042444;28;20064;-78
2021/01/09 00:25:07;;;;;;;16.00;10.82;;;4.20;99.90;;;;;;5038642;28;20017;-78
2021/01/09 00:27:33;;;;;;;17.15;10.77;;;4.30;99.90;;;;;;5044320;28;20086;-77
2021/01/09 00:29:59;;;;;;;17.55;11.00;;;4.20;99.90;;;;;;5034641;28;20461;-78
2021/01/09 00:32:24;;;;;;;14.82;9.68;;;4.20;99.90;;;;;;5035072;28;20017;-76
2021/01/09 00:34:50;;;;;;;17.17;10.48;;;4.20;99.90;;;;;;5048367;28;20112;-78
2021/01/09 00:37:16;;;;;;;18.33;11.38;;;4.20;99.90;;;;;;5034609;28;20021;-78
2021/01/09 00:39:46;;;;;;;15.80;10.20;;;4.10;99.90;;;;;;5034356;28;20121;-74
2021/01/09 00:42:11;;;;;;;14.27;9.38;;;4.20;99.90;;;;;;5046754;28;20480;-77
2021/01/09 00:44:37;;;;;;;16.50;10.45;;;4.10;99.90;;;;;;5033758;28;20033;-76
2021/01/09 00:47:03;;;;;;;16.20;10.15;;;4.20;99.90;;;;;;5034256;28;20029;-77
2021/01/09 00:49:29;;;;;;;16.20;10.07;;;4.20;99.90;;;;;;5034549;28;20517;-74
2021/01/09 00:51:56;;;;;;;17.23;10.98;;;4.20;99.90;;;;;;5034201;28;20067;-78
2021/01/09 00:54:22;;;;;;;16.67;9.80;;;4.10;99.90;;;;;;5033870;28;20112;-75
2021/01/09 00:56:55;;;;;;;17.75;11.35;;;4.10;99.90;;;;;;5034405;28;20164;-77
2021/01/09 00:59:23;;;;;;;20.42;12.13;;;4.10;99.90;;;;;;5034093;28;20038;-77
2021/01/09 01:01:52;;;;;;;15.55;10.82;;;4.10;99.90;;;;;;5032964;28;20486;-75
2021/01/09 01:04:18;;;;;;;18.95;11.50;;;4.10;99.90;;;;;;5034486;28;20041;-78
2021/01/09 01:06:45;;;;;;;18.13;11.02;;;4.10;99.90;;;;;;5043621;28;20025;-78
2021/01/09 01:09:11;;;;;;;17.30;10.93;;;4.00;99.90;;;;;;5037981;28;20032;-74
2021/01/09 01:11:36;;;;;;;18.00;11.70;;;4.00;99.90;;;;;;5034026;28;20022;-74
2021/01/09 01:14:03;;;;;;;20.80;11.85;;;4.00;99.90;;;;;;5034524;28;20014;-77
2021/01/09 01:16:28;;;;;;;18.00;11.38;;;4.00;99.90;;;;;;5034499;28;20030;-77
2021/01/09 01:18:55;;;;;;;16.25;10.93;;;4.10;99.90;;;;;;5034144;28;20027;-77
2021/01/09 01:21:21;;;;;;;18.35;10.88;;;4.10;99.90;;;;;;5034516;28;20026;-75
2021/01/09 01:23:47;;;;;;;16.42;11.02;;;4.00;99.90;;;;;;5034103;28;20038;-76
2021/01/09 01:26:13;;;;;;;19.58;10.43;;;4.00;99.90;;;;;;5033509;28;20030;-77
2021/01/09 01:28:39;;;;;;;15.68;10.25;;;4.00;99.90;;;;;;5033892;28;20052;-77
2021/01/09 01:31:06;;;;;;;17.73;10.90;;;4.00;99.90;;;;;;5033871;28;20025;-76
2021/01/09 01:33:32;;;;;;;15.30;9.93;;;4.10;99.90;;;;;;5034082;28;20072;-77
2021/01/09 01:35:58;;;;;;;21.48;12.10;;;4.10;99.90;;;;;;5033814;28;20045;-74
2021/01/09 01:38:24;;;;;;;17.80;11.07;;;4.10;99.90;;;;;;5034108;28;20077;-77
2021/01/09 01:40:51;;;;;;;18.13;10.05;;;4.00;99.90;;;;;;5034607;28;20474;-77
2021/01/09 01:43:17;;;;;;;18.15;11.05;;;4.00;99.90;;;;;;5036618;28;20029;-75
2021/01/09 01:45:43;;;;;;;18.60;11.75;;;4.00;99.90;;;;;;5033641;28;20470;-76
2021/01/09 01:48:11;;;;;;;18.70;11.43;;;4.00;99.90;;;;;;5033937;28;20056;-77
2021/01/09 01:50:40;;;;;;;19.40;11.52;;;4.10;99.90;;;;;;5033827;28;20025;-75
2021/01/09 01:53:07;;;;;;;20.58;11.07;;;4.00;99.90;;;;;;5033507;28;20029;-77
2021/01/09 01:55:34;;;;;;;17.73;11.48;;;4.00;99.90;;;;;;5033967;28;20018;-76
2021/01/09 01:58:00;;;;;;;18.10;10.50;;;4.00;99.90;;;;;;5016036;28;20096;-76
2021/01/09 02:00:27;;;;;;;15.68;10.93;;;4.00;99.90;;;;;;5033534;28;20037;-73
2021/01/09 02:02:57;;;;;;;18.48;11.25;;;4.00;99.90;;;;;;5033215;28;20120;-77
2021/01/09 02:05:33;;;;;;;18.27;10.93;;;4.00;99.90;;;;;;5033145;28;20462;-75
2021/01/09 02:08:02;;;;;;;18.13;11.23;;;4.00;99.90;;;;;;5033593;28;20496;-77
2021/01/09 02:10:28;;;;;;;16.92;11.02;;;4.00;99.90;;;;;;5033368;28;20024;-75
2021/01/09 02:13:33;;;;;;;18.48;11.40;;;4.00;99.90;;;;;;5034085;28;20374;-76
2021/01/09 02:15:59;;;;;;;18.38;11.23;;;4.00;99.90;;;;;;5027072;28;20033;-77
2021/01/09 02:18:26;;;;;;;19.23;11.50;;;4.00;99.90;;;;;;5040415;28;20030;-75
2021/01/09 02:21:04;;;;;;;14.23;9.57;;;4.00;99.90;;;;;;5037637;28;20198;-76
2021/01/09 02:23:30;;;;;;;16.23;10.73;;;4.00;99.90;;;;;;5037917;28;20025;-78
2021/01/09 02:25:56;;;;;;;18.42;11.73;;;4.00;99.90;;;;;;5037320;28;20049;-75
2021/01/09 02:28:22;;;;;;;17.55;11.35;;;4.00;99.90;;;;;;5036759;28;20152;-75
2021/01/09 02:30:48;;;;;;;18.77;11.40;;;4.00;99.90;;;;;;5037685;28;20022;-75
2021/01/09 02:33:18;;;;;;;21.45;10.93;;;4.00;99.90;;;;;;5033430;28;20029;-75
2021/01/09 02:35:44;;;;;;;16.88;10.27;;;4.00;99.90;;;;;;5048735;28;20081;-74
2021/01/09 02:38:10;;;;;;;13.98;9.48;;;4.00;99.90;;;;;;5052777;28;20120;-75
2021/01/09 02:40:40;;;;;;;16.95;10.48;;;4.00;99.90;;;;;;5057043;28;20022;-76
2021/01/09 02:43:12;;;;;;;17.70;10.60;;;4.00;99.90;;;;;;5040155;28;20018;-74
2021/01/09 02:45:38;;;;;;;15.45;9.68;;;4.00;99.90;;;;;;5055330;28;20108;-75
2021/01/09 02:48:05;;;;;;;16.45;10.50;;;4.00;99.90;;;;;;5053800;28;20370;-73
2021/01/09 02:50:31;;;;;;;17.58;11.02;;;4.00;99.90;;;;;;5057945;28;20034;-74
2021/01/09 02:52:57;;;;;;;15.27;9.98;;;4.00;99.90;;;;;;5039657;28;20029;-73
2021/01/09 02:55:22;;;;;;;18.10;10.10;;;4.00;99.90;;;;;;5037883;28;20025;-74
2021/01/09 02:57:48;;;;;;;18.40;10.07;;;4.00;99.90;;;;;;5033663;28;20029;-75
2021/01/09 03:00:14;;;;;;;14.90;9.85;;;4.00;99.90;;;;;;5033952;28;20052;-76
2021/01/09 03:02:40;;;;;;;17.60;11.15;;;4.00;99.90;;;;;;5036191;28;20025;-76
2021/01/09 03:05:06;;;;;;;14.57;10.85;;;4.00;99.90;;;;;;5032706;28;20043;-74
2021/01/09 03:07:32;;;;;;;14.30;9.60;;;4.00;99.90;;;;;;5032651;28;20430;-76
2021/01/09 03:09:57;;;;;;;17.13;9.68;;;4.00;99.90;;;;;;5031934;28;20048;-75
2021/01/09 03:12:23;;;;;;;20.52;10.98;;;4.00;99.90;;;;;;5032694;28;20029;-74
2021/01/09 03:14:48;;;;;;;18.23;11.23;;;4.00;99.90;;;;;;5032987;28;20021;-77
2021/01/09 03:17:14;;;;;;;16.52;10.18;;;3.90;99.90;;;;;;5032295;28;20029;-74
2021/01/09 03:19:40;;;;;;;16.83;9.73;;;4.00;99.90;;;;;;5032463;28;20540;-77
2021/01/09 03:22:05;;;;;;;17.17;10.13;;;4.00;99.90;;;;;;5032140;28;20045;-77
2021/01/09 03:24:33;;;;;;;18.27;10.93;;;3.90;99.90;;;;;;5043346;28;20602;-76
2021/01/09 03:26:58;;;;;;;17.42;11.30;;;3.90;99.90;;;;;;5034599;28;20020;-73
2021/01/09 03:29:24;;;;;;;16.77;10.07;;;3.90;99.90;;;;;;5032451;28;20017;-76
2021/01/09 03:31:50;;;;;;;13.95;8.70;;;3.90;99.90;;;;;;5032162;28;20477;-75
2021/01/09 03:34:15;;;;;;;15.27;9.13;;;3.90;99.90;;;;;;5031730;28;20021;-76
2021/01/09 03:36:41;;;;;;;18.13;10.75;;;3.90;99.90;;;;;;5031792;28;20025;-78
2021/01/09 03:39:07;;;;;;;17.15;11.00;;;3.80;99.90;;;;;;5031784;28;20462;-77
2021/01/09 03:41:32;;;;;;;17.42;10.43;;;3.80;99.90;;;;;;5031957;28;20021;-78
2021/01/09 03:43:59;;;;;;;16.50;9.63;;;3.80;99.90;;;;;;5031853;28;20025;-75
2021/01/09 03:46:24;;;;;;;13.02;9.20;;;3.80;99.90;;;;;;5032250;28;20070;-76
2021/01/09 03:48:50;;;;;;;14.25;9.90;;;3.80;99.90;;;;;;5034314;28;20033;-76
2021/01/09 03:51:16;;;;;;;16.27;10.00;;;3.80;99.90;;;;;;5018256;28;20454;-75
2021/01/09 03:53:41;;;;;;;16.17;10.35;;;3.80;99.90;;;;;;5036380;28;20080;-77
2021/01/09 03:56:07;;;;;;;15.20;9.75;;;3.80;99.90;;;;;;5036275;28;20444;-76
2021/01/09 03:58:33;;;;;;;14.30;9.52;;;3.80;99.90;;;;;;5036291;28;20532;-77
2021/01/09 04:00:59;;;;;;;14.95;9.55;;;3.80;99.90;;;;;;5036163;28;20402;-74
2021/01/09 04:03:24;;;;;;;12.48;8.88;;;3.80;99.90;;;;;;5039328;28;20496;-77
2021/01/09 04:05:50;;;;;;;15.98;10.23;;;3.80;99.90;;;;;;5035622;28;20021;-77
2021/01/09 04:08:16;;;;;;;17.40;9.82;;;3.80;99.90;;;;;;5035885;28;20029;-76
2021/01/09 04:10:42;;;;;;;13.00;8.73;;;3.80;99.90;;;;;;5035645;28;20021;-75
2021/01/09 04:13:07;;;;;;;14.43;9.63;;;3.80;99.90;;;;;;5035827;28;20466;-77
2021/01/09 04:15:33;;;;;;;12.90;8.95;;;3.90;99.90;;;;;;5035636;28;20481;-75
2021/01/09 04:17:59;;;;;;;14.15;9.55;;;3.90;99.90;;;;;;5035622;28;20028;-77
2021/01/09 04:20:24;;;;;;;13.68;9.05;;;3.80;99.90;;;;;;5035051;28;20032;-76
2021/01/09 04:22:50;;;;;;;13.57;9.25;;;3.80;99.90;;;;;;5035369;28;20041;-77
2021/01/09 04:25:16;;;;;;;13.95;8.65;;;3.80;99.90;;;;;;5035353;28;20096;-75
2021/01/09 04:27:41;;;;;;;12.90;8.25;;;3.80;99.90;;;;;;5035717;28;20039;-77
2021/01/09 04:30:08;;;;;;;12.55;8.60;;;3.80;99.90;;;;;;5034828;28;20107;-77
2021/01/09 04:32:33;;;;;;;12.70;8.50;;;3.80;99.90;;;;;;5035511;28;20351;-74
2021/01/09 04:34:59;;;;;;;11.60;7.82;;;3.90;99.90;;;;;;5017672;28;20030;-75
2021/01/09 04:37:25;;;;;;;14.38;9.27;;;3.90;99.90;;;;;;5035276;28;20025;-74
2021/01/09 04:39:51;;;;;;;12.27;8.20;;;3.90;99.90;;;;;;5035005;28;20474;-75
2021/01/09 04:42:17;;;;;;;13.30;8.35;;;3.90;99.90;;;;;;5035061;28;20038;-78
2021/01/09 04:44:44;;;;;;;11.32;8.43;;;3.90;99.90;;;;;;5035137;28;20389;-78
2021/01/09 04:47:11;;;;;;;13.25;8.60;;;3.90;99.90;;;;;;5035050;28;20032;-78
2021/01/09 04:49:39;;;;;;;11.27;7.93;;;3.90;99.90;;;;;;5035135;28;20013;-74
2021/01/09 04:52:06;;;;;;;13.48;7.90;;;3.90;99.90;;;;;;5035287;28;20474;-76
2021/01/09 04:54:33;;;;;;;13.27;8.48;;;4.00;99.90;;;;;;5034980;28;20052;-77
2021/01/09 04:56:59;;;;;;;12.15;8.07;;;3.90;99.90;;;;;;5034303;28;20454;-77
2021/01/09 04:59:25;;;;;;;23.77;8.98;;;3.90;99.90;;;;;;5033286;28;20032;-74
2021/01/09 05:01:52;;;;;;;14.88;9.15;;;3.90;99.90;;;;;;5034725;28;20028;-75
2021/01/09 05:04:18;;;;;;;13.30;8.55;;;3.90;99.90;;;;;;5016390;28;20033;-78
2021/01/09 05:06:46;;;;;;;16.98;9.10;;;3.90;99.90;;;;;;5034789;28;20549;-76
2021/01/09 05:09:13;;;;;;;17.02;9.95;;;3.80;99.90;;;;;;5016586;28;20033;-77
2021/01/09 05:11:40;;;;;;;13.25;8.90;;;3.90;99.90;;;;;;5034585;28;20466;-76
2021/01/09 05:14:07;;;;;;;16.05;9.48;;;3.90;99.90;;;;;;5034664;28;20029;-77
2021/01/09 05:16:34;;;;;;;13.82;8.65;;;3.80;99.90;;;;;;5034655;28;20445;-75
2021/01/09 05:19:01;;;;;;;14.02;9.38;;;3.80;99.90;;;;;;5034583;28;20056;-75
2021/01/09 05:21:28;;;;;;;12.88;8.82;;;3.80;99.90;;;;;;5034556;28;20052;-75
2021/01/09 05:23:59;;;;;;;12.48;8.43;;;3.80;99.90;;;;;;5034682;28;20044;-76
2021/01/09 05:26:24;;;;;;;13.17;8.33;;;3.80;99.90;;;;;;5034398;28;20417;-75
2021/01/09 05:28:59;;;;;;;13.00;8.98;;;3.90;99.90;;;;;;5034169;28;20322;-76
2021/01/09 05:31:26;;;;;;;12.07;8.45;;;3.90;99.90;;;;;;5034139;28;20033;-74
2021/01/09 05:33:53;;;;;;;17.15;8.75;;;3.90;99.90;;;;;;5034425;28;20052;-77
2021/01/09 05:36:20;;;;;;;11.20;7.88;;;3.90;99.90;;;;;;5034369;28;20025;-78
2021/01/09 05:38:47;;;;;;;13.77;9.18;;;3.90;99.90;;;;;;5034128;28;20025;-77
2021/01/09 05:41:19;;;;;;;12.80;8.18;;;3.90;99.90;;;;;;5041636;28;20091;-77
2021/01/09 05:44:08;;;;;;;13.05;8.57;;;3.90;99.90;;;;;;5038295;28;20037;-75
2021/01/09 05:46:40;;;;;;;15.23;9.00;;;3.90;99.90;;;;;;5026117;28;20034;-74
2021/01/09 05:49:07;;;;;;;15.27;8.77;;;3.80;99.90;;;;;;5033576;28;20028;-74
2021/01/09 05:51:35;;;;;;;13.45;9.15;;;3.80;99.90;;;;;;5033891;28;20018;-74
2021/01/09 05:54:01;;;;;;;12.75;8.57;;;3.80;99.90;;;;;;5033875;28;20026;-76
2021/01/09 05:56:27;;;;;;;12.77;8.02;;;3.80;99.90;;;;;;5034104;28;20322;-77
2021/01/09 05:58:56;;;;;;;13.77;8.68;;;3.80;99.90;;;;;;5033347;28;20100;-75
2021/01/09 06:01:27;;;;;;;12.25;8.65;;;3.70;99.90;;;;;;5033072;28;20057;-75
2021/01/09 06:04:03;;;;;;;11.02;8.02;;;3.70;99.90;;;;;;5032812;28;20044;-75
2021/01/09 06:06:32;;;;;;;13.40;8.35;;;3.80;99.90;;;;;;5031973;28;20022;-78
2021/01/09 06:09:07;;;;;;;14.40;8.43;;;3.70;99.90;;;;;;5032630;28;20033;-75
2021/01/09 06:11:41;;;;;;;12.07;8.20;;;3.80;99.90;;;;;;5033509;28;20022;-75
2021/01/09 06:14:11;;;;;;;11.60;7.35;;;3.70;99.90;;;;;;5015017;28;20100;-77
2021/01/09 06:16:39;;;;;;;11.32;7.63;;;3.70;99.90;;;;;;5032523;28;20044;-77
2021/01/09 06:19:06;;;;;;;10.80;7.57;;;3.80;99.90;;;;;;5033234;28;20068;-76
2021/01/09 06:21:34;;;;;;;10.63;7.38;;;3.80;99.90;;;;;;5033221;28;20025;-77
2021/01/09 06:24:02;;;;;;;11.20;7.32;;;3.80;99.90;;;;;;5034693;28;20033;-75
2021/01/09 06:26:29;;;;;;;12.52;7.63;;;3.80;99.90;;;;;;5034384;28;20017;-75
2021/01/09 06:29:00;;;;;;;11.95;7.10;;;3.80;99.90;;;;;;5032896;28;20072;-76
2021/01/09 06:31:28;;;;;;;11.50;7.65;;;3.80;99.90;;;;;;5044287;28;20084;-77
2021/01/09 06:33:56;;;;;;;11.07;7.32;;;3.80;99.90;;;;;;5034278;28;20417;-76
2021/01/09 06:36:24;;;;;;;12.60;8.10;;;3.80;99.90;;;;;;5033369;28;20096;-78
2021/01/09 06:39:02;;;;;;;18.17;7.50;;;3.80;99.90;;;;;;5032336;28;20067;-77
2021/01/09 06:41:32;;;;;;;11.80;7.63;;;3.80;99.90;;;;;;5032150;28;20022;-75
2021/01/09 06:44:05;;;;;;;12.52;7.40;;;3.70;99.90;;;;;;5032183;28;20029;-79
2021/01/09 06:46:35;;;;;;;9.07;6.63;;;3.80;99.90;;;;;;5032523;28;20017;-74
2021/01/09 06:49:02;;;;;;;11.27;7.82;;;3.70;99.90;;;;;;5032152;28;20083;-75
2021/01/09 06:51:40;;;;;;;11.27;7.68;;;3.70;99.90;;;;;;5032458;28;20025;-77
2021/01/09 06:54:15;;;;;;;13.05;7.85;;;3.70;99.90;;;;;;5032244;28;20144;-74
2021/01/09 06:56:43;;;;;;;11.65;7.93;;;3.70;99.90;;;;;;5032170;28;20029;-77
2021/01/09 06:59:09;;;;;;;12.18;8.15;;;3.70;99.90;;;;;;5031580;28;20386;-77
2021/01/09 07:01:38;;;;;;;13.57;8.40;;;3.70;99.90;;;;;;5031887;28;20049;-75
2021/01/09 07:04:07;;;;;;;11.80;7.28;;;3.80;99.90;;;;;;5032115;28;20046;-75
2021/01/09 07:06:51;;;;;;;11.55;7.90;;;3.70;99.90;;;;;;5032156;28;20489;-76
2021/01/09 07:09:28;;;;;;;12.02;8.05;;;3.80;99.90;;;;;;5031390;28;20038;-74
2021/01/09 07:11:54;;;;;;;11.00;7.82;;;3.80;99.90;;;;;;5029962;28;20017;-75
2021/01/09 07:14:21;;;;;;;10.07;7.03;;;3.80;99.90;;;;;;5032500;28;20080;-76
2021/01/09 07:16:47;;;;;;;10.20;7.65;;;3.90;99.90;;;;;;5032431;28;20022;-77
2021/01/09 07:19:14;;;;;;;12.90;8.05;;;3.90;99.90;;;;;;5031584;28;20412;-73
2021/01/09 07:21:45;;;;;;;9.98;7.38;;;3.90;99.90;;;;;;5014476;28;20029;-74
2021/01/09 07:24:16;;;;;;;9.90;7.57;;;4.00;99.90;;;;;;5032055;28;20030;-76
2021/01/09 07:26:42;;;;;;;8.93;6.55;;;4.00;99.90;;;;;;5031918;28;20026;-76
2021/01/09 07:29:08;;;;;;;15.32;8.27;;;4.00;99.90;;;;;;5032372;28;20022;-74
2021/01/09 07:31:39;;;;;;;13.70;9.63;;;4.00;99.90;;;;;;5032334;28;20385;-77
2021/01/09 07:34:12;;;;;;;11.35;8.10;;;4.00;99.90;;;;;;5032523;28;20032;-74
2021/01/09 07:36:39;;;;;;;13.45;8.20;;;4.00;99.90;;;;;;5032674;28;20030;-77
2021/01/09 07:39:05;;;;;;;11.98;8.30;;;4.00;99.90;;;;;;5032013;28;20110;-77
2021/01/09 07:41:36;;;;;;;12.68;8.13;;;4.00;99.90;;;;;;5032611;28;20022;-75
2021/01/09 07:44:16;;;;;;;17.23;10.35;;;4.00;99.90;;;;;;5031872;28;20083;-75
2021/01/09 07:46:56;;;;;;;10.93;7.38;;;4.00;99.90;;;;;;5044043;28;20107;-77
2021/01/09 07:49:30;;;;;;;11.75;7.78;;;4.10;99.90;;;;;;5032486;28;20024;-77
2021/01/09 07:52:07;;;;;;;12.75;8.32;;;4.20;99.90;;;;;;5032597;28;20465;-75
2021/01/09 07:54:39;;;;;;;18.63;8.35;;;4.20;99.90;;;;;;5018393;28;20021;-78
2021/01/09 07:57:17;;;;;;;13.15;8.38;;;4.30;99.90;;;;;;5032293;28;20022;-74
2021/01/09 07:59:46;;;;;;;14.30;8.23;;;4.30;99.90;;;;;;5019104;28;20485;-78
2021/01/09 08:02:21;;;;;;;11.52;7.50;;;4.40;99.90;;;;;;5031983;28;20026;-78
2021/01/09 08:04:47;;;;;;;12.88;7.68;;;4.40;99.90;;;;;;5031279;28;20482;-76
2021/01/09 08:07:19;;;;;;;9.70;7.15;;;4.50;99.90;;;;;;5032055;28;20079;-75
2021/01/09 08:09:45;;;;;;;;;;;4.50;99.90;;;;;;5031710;28;20389;-77
2021/01/09 08:12:11;;;;;;;11.13;7.22;;;4.60;99.90;;;;;;5031945;28;19951;-77
2021/01/09 08:14:36;;;;;;;10.02;7.45;;;4.90;99.90;;;;;;5032052;28;20026;-75
2021/01/09 08:17:11;;;;;;;11.52;7.55;;;5.10;99.90;;;;;;5044690;28;20037;-77
2021/01/09 08:19:38;;;;;;;9.85;7.25;;;5.40;99.90;;;;;;5047370;28;20037;-76
2021/01/09 08:22:04;;;;;;;10.13;7.03;;;5.70;99.90;;;;;;5028592;28;20033;-76
2021/01/09 08:24:30;;;;;;;11.77;7.60;;;6.00;99.90;;;;;;5049139;28;20033;-77
2021/01/09 08:26:57;;;;;;;9.45;6.95;;;6.30;99.90;;;;;;5047476;28;20478;-76
2021/01/09 08:29:24;;;;;;;10.35;7.30;;;6.40;99.90;;;;;;5049967;28;20017;-77
2021/01/09 08:31:51;;;;;;;9.10;6.72;;;6.60;99.90;;;;;;5045375;28;20009;-78
2021/01/09 08:34:18;;;;;;;11.13;7.28;;;6.70;99.90;;;;;;5049869;28;20013;-75
2021/01/09 08:36:44;;;;;;;9.55;6.90;;;6.70;99.90;;;;;;5050411;28;20114;-76
2021/01/09 08:39:10;;;;;;;9.93;6.90;;;6.90;99.90;;;;;;5050019;28;20018;-75
2021/01/09 08:41:44;;;;;;;9.20;6.35;;;7.40;99.90;;;;;;5044625;28;20048;-78
2021/01/09 08:44:12;;;;;;;9.50;6.95;;;7.70;99.90;;;;;;5048777;28;20084;-76
2021/01/09 08:46:40;;;;;;;10.13;6.75;;;7.80;99.90;;;;;;5052554;28;20032;-74
2021/01/09 08:49:06;;;;;;;11.52;7.05;;;7.90;99.90;;;;;;5050919;28;20084;-75
2021/01/09 08:51:34;;;;;;;9.55;6.95;;;8.00;99.90;;;;;;5044956;28;20096;-78
2021/01/09 08:54:24;;;;;;;7.25;5.72;;;8.00;99.90;;;;;;5028467;28;20030;-77
2021/01/09 08:56:50;;;;;;;10.45;6.30;;;8.20;99.90;;;;;;5027237;28;20378;-75
2021/01/09 08:59:15;;;;;;;8.40;6.38;;;8.30;99.90;;;;;;5043210;28;20036;-78
2021/01/09 09:01:45;;;;;;;13.38;6.60;;;8.10;99.90;;;;;;5043503;28;20040;-76
2021/01/09 09:04:12;;;;;;;11.98;7.43;;;7.70;99.90;;;;;;5046077;28;20165;-80
2021/01/09 09:06:42;;;;;;;8.98;6.85;;;7.40;99.90;;;;;;5044774;28;20198;-74
2021/01/09 09:09:09;;;;;;;9.05;6.47;;;7.40;99.90;;;;;;5047325;28;20045;-77
2021/01/09 09:11:35;;;;;;;10.25;6.57;;;7.60;99.90;;;;;;5045697;28;20111;-78
2021/01/09 09:14:11;;;;;;;10.95;6.97;;;7.60;99.90;;;;;;5029474;28;20501;-81
2021/01/09 09:16:38;;;;;;;10.98;7.57;;;7.70;99.90;;;;;;5045232;28;20026;-77
2021/01/09 09:19:18;;;;;;;10.48;6.93;;;7.80;99.90;;;;;;5045158;28;20032;-79
2021/01/09 09:21:45;;;;;;;9.45;6.03;;;7.60;99.90;;;;;;5030036;28;20037;-80
2021/01/09 09:24:12;;;;;;;10.43;7.20;;;7.60;99.90;;;;;;5027538;28;20116;-76
2021/01/09 09:26:38;;;;;;;13.20;7.72;;;7.60;99.90;;;;;;5043425;28;20025;-80
2021/01/09 09:29:04;;;;;;;9.73;6.55;;;8.00;99.90;;;;;;5045498;28;20021;-77
2021/01/09 09:31:34;;;;;;;9.07;6.47;;;8.40;99.90;;;;;;5027518;28;20032;-75
2021/01/09 09:34:06;;;;;;;9.68;6.55;;;8.40;99.90;;;;;;5049751;28;20370;-79
2021/01/09 09:36:34;;;;;;;13.05;6.40;;;8.30;99.90;;;;;;5047799;28;20044;-77
2021/01/09 09:39:17;;;;;;;10.32;6.78;;;8.50;99.90;;;;;;5044798;28;20022;-80
2021/01/09 09:41:57;;;;;;;10.13;6.70;;;8.90;99.90;;;;;;5035813;28;20037;-76
2021/01/09 09:44:43;;;;;;;16.17;9.02;;;9.60;99.90;;;;;;5035311;28;20385;-79
2021/01/09 09:47:27;;;;;;;16.60;10.50;;;10.20;99.90;;;;;;5045179;28;20370;-75
2021/01/09 09:49:59;;;;;;;12.60;6.82;;;10.80;99.90;;;;;;5035289;28;20540;-74
2021/01/09 09:52:25;;;;;;;;;;;11.00;99.90;;;;;;5042943;28;20038;-76
2021/01/09 09:55:03;;;;;;;7.65;6.03;;;11.30;99.90;;;;;;5047864;28;19905;-75
2021/01/09 09:57:28;;;;;;;7.57;5.45;;;11.20;99.90;;;;;;5049346;28;20052;-78
2021/01/09 10:00:15;;;;;;;8.85;5.50;;;11.30;99.90;;;;;;5049578;28;20068;-78
2021/01/09 10:02:54;;;;;;;6.05;5.38;;;11.50;99.90;;;;;;5049781;28;20489;-74
2021/01/09 10:05:21;;;;;;;9.18;5.85;;;11.40;99.90;;;;;;5048334;28;20040;-78
2021/01/09 10:07:47;;;;;;;7.15;5.25;;;11.80;99.90;;;;;;5027915;28;20028;-77
2021/01/09 10:10:14;;;;;;;7.00;5.22;;;11.60;99.90;;;;;;5044184;28;20017;-76
2021/01/09 10:12:40;;;;;;;10.60;5.25;;;11.50;99.90;;;;;;5050722;28;20095;-77
2021/01/09 10:15:07;;;;;;;7.22;5.07;;;11.60;99.90;;;;;;5029099;28;20140;-76
2021/01/09 10:17:33;;;;;;;6.35;5.32;;;11.90;99.90;;;;;;5041931;28;20024;-76
2021/01/09 10:19:58;;;;;;;7.30;5.20;;;12.30;99.90;;;;;;5017855;28;20033;-76
2021/01/09 10:22:24;;;;;;;6.97;5.15;;;12.40;99.90;;;;;;5046047;28;20017;-75
2021/01/09 10:24:50;;;;;;;6.25;4.97;;;12.80;99.90;;;;;;5042678;28;20543;-76
2021/01/09 10:27:15;;;;;;;7.13;5.18;;;13.40;99.90;;;;;;5047888;28;20029;-75
2021/01/09 10:29:41;;;;;;;5.95;5.22;;;13.70;99.40;;;;;;5046234;28;20025;-77
2021/01/09 10:32:07;;;;;;;7.32;5.57;;;13.80;98.80;;;;;;5048764;28;20017;-77
2021/01/09 10:34:33;;;;;;;8.77;5.95;;;13.80;98.80;;;;;;5038528;28;20036;-75
2021/01/09 10:36:58;;;;;;;7.15;5.53;;;14.30;97.70;;;;;;5042382;28;20382;-79
2021/01/09 10:39:24;;;;;;;6.07;5.03;;;13.90;97.20;;;;;;5032303;28;20072;-78
2021/01/09 10:41:50;;;;;;;7.10;5.63;;;13.60;97.60;;;;;;5045900;28;20065;-76
2021/01/09 10:44:16;;;;;;;10.85;5.32;;;13.30;98.10;;;;;;5044482;28;20484;-77
2021/01/09 10:46:42;;;;;;;6.50;5.22;;;13.10;98.10;;;;;;5044045;28;20086;-77
2021/01/09 10:49:07;;;;;;;9.05;6.53;;;13.30;97.80;;;;;;5047518;28;20505;-77
2021/01/09 10:51:34;;;;;;;21.05;13.68;;;12.60;98.30;;;;;;5039598;28;20501;-77
2021/01/09 10:54:02;;;;;;;12.23;8.50;;;11.90;99.10;;;;;;5035089;28;20093;-76
2021/01/09 10:56:28;;;;;;;6.95;5.65;;;12.20;99.30;;;;;;5041801;28;20017;-76
2021/01/09 10:58:53;;;;;;;6.88;5.72;;;12.70;98.40;;;;;;5029453;28;20061;-76
2021/01/09 11:01:22;;;;;;;11.32;7.70;;;12.30;98.70;;;;;;5031341;28;20123;-75
2021/01/09 11:03:48;;;;;;;10.52;6.65;;;12.40;98.50;;;;;;5030007;28;20393;-76
2021/01/09 11:06:21;;;;;;;8.35;6.30;;;12.40;99.00;;;;;;5033357;28;20024;-77
2021/01/09 11:08:47;;;;;;;9.50;7.15;;;12.10;98.60;;;;;;5032071;28;20033;-77
2021/01/09 11:11:13;;;;;;;13.10;7.75;;;11.30;99.80;;;;;;5032013;28;20382;-77
2021/01/09 11:13:38;;;;;;;11.50;7.18;;;11.00;99.90;;;;;;5032056;28;20079;-76
2021/01/09 11:16:04;;;;;;;12.88;7.13;;;11.00;99.90;;;;;;5032706;28;20021;-76
2021/01/09 11:18:30;;;;;;;9.68;7.05;;;10.90;99.90;;;;;;5032174;28;20377;-76
2021/01/09 11:20:56;;;;;;;12.00;8.38;;;10.70;99.90;;;;;;5032423;28;20026;-77
2021/01/09 11:23:21;;;;;;;10.85;7.32;;;9.90;99.90;;;;;;5032134;28;20041;-76
2021/01/09 11:25:48;;;;;;;13.10;8.23;;;9.60;99.90;;;;;;5032468;28;20029;-77
2021/01/09 11:28:15;;;;;;;13.10;8.27;;;9.60;99.90;;;;;;5042165;28;20025;-78
2021/01/09 11:30:43;;;;;;;12.85;9.32;;;9.40;99.90;;;;;;5048250;28;20028;-78
2021/01/09 11:33:09;;;;;;;12.07;9.57;;;9.10;99.90;;;;;;5042074;28;20025;-76
2021/01/09 11:35:35;;;;;;;12.25;8.57;;;8.80;99.90;;;;;;5046810;28;20044;-76
2021/01/09 11:38:01;;;;;;;12.38;9.95;;;8.40;99.90;;;;;;5047770;28;20017;-77
2021/01/09 11:40:27;;;;;;;14.10;9.48;;;8.20;99.90;;;;;;5045452;28;20024;-80
2021/01/09 11:42:53;;;;;;;16.58;11.48;;;7.90;99.90;;;;;;5041581;28;20037;-76
2021/01/09 11:45:19;;;;;;;17.85;9.73;;;7.70;99.90;;;;;;5032218;28;20038;-79
2021/01/09 11:47:45;;;;;;;10.75;8.27;;;7.50;99.90;;;;;;5034208;28;20378;-75
2021/01/09 11:50:12;;;;;;;15.30;10.00;;;7.30;99.90;;;;;;5045778;28;20099;-78
2021/01/09 11:52:38;;;;;;;18.40;11.50;;;7.20;99.90;;;;;;5043825;28;20381;-76
2021/01/09 11:55:05;;;;;;;15.82;10.45;;;7.00;99.90;;;;;;5044714;28;20021;-77
2021/01/09 11:57:31;;;;;;;18.58;10.40;;;6.90;99.90;;;;;;5044523;28;20079;-78
2021/01/09 11:59:57;;;;;;;14.50;9.38;;;6.90;99.90;;;;;;5042642;28;20045;-77
2021/01/09 12:02:22;;;;;;;13.55;8.43;;;7.00;99.90;;;;;;5044293;28;20496;-78
2021/01/09 12:04:48;;;;;;;14.48;9.32;;;6.90;99.90;;;;;;5048506;28;20033;-85
2021/01/09 12:07:14;;;;;;;15.32;9.68;;;6.80;99.90;;;;;;5005733;28;20025;-82
2021/01/09 12:09:40;;;;;;;19.25;9.95;;;6.70;99.90;;;;;;5047388;28;20029;-78
2021/01/09 12:12:07;;;;;;;16.17;10.15;;;6.70;99.90;;;;;;5046251;28;20022;-78
2021/01/09 12:14:33;;;;;;;13.60;9.88;;;6.70;99.90;;;;;;5048034;28;20105;-82
2021/01/09 12:17:02;;;;;;;14.15;8.98;;;6.60;99.90;;;;;;5047922;28;20037;-81
2021/01/09 12:19:28;;;;;;;14.77;10.70;;;6.50;99.90;;;;;;5047503;28;20017;-75
2021/01/09 12:21:55;;;;;;;17.35;11.73;;;6.50;99.90;;;;;;5050024;28;20091;-76
2021/01/09 12:24:21;;;;;;;13.15;9.02;;;6.50;99.90;;;;;;5034175;28;20029;-79
2021/01/09 12:26:56;;;;;;;19.02;10.95;;;6.60;99.90;;;;;;5051763;28;20096;-81
2021/01/09 12:29:22;;;;;;;21.48;10.45;;;6.60;99.90;;;;;;5012255;28;20017;-76
2021/01/09 12:31:49;;;;;;;16.48;9.25;;;6.50;99.90;;;;;;5051471;28;20079;-77
2021/01/09 12:34:16;;;;;;;20.25;11.52;;;6.50;99.90;;;;;;5051560;28;20037;-78
2021/01/09 12:36:42;;;;;;;15.30;9.95;;;6.50;99.90;;;;;;5049501;28;20021;-77
2021/01/09 12:39:08;;;;;;;14.07;9.73;;;6.60;99.90;;;;;;5043747;28;20554;-78
2021/01/09 12:41:42;;;;;;;16.63;11.52;;;6.50;99.90;;;;;;5048658;28;20100;-74
2021/01/09 12:44:09;;;;;;;19.55;11.18;;;6.50;99.90;;;;;;5050671;28;20176;-77
2021/01/09 12:46:42;;;;;;;16.80;10.77;;;6.50;99.90;;;;;;5048477;28;20026;-73
2021/01/09 12:49:15;;;;;;;19.48;10.60;;;6.40;99.90;;;;;;5033826;28;20025;-77